Domov               UVHVVR             MKGP            O straneh              
ZDRAVSTVENO VARSTVO RASTLIN
  MREŽA AGROMET. POSTAJ
 ► PROGNOSTIČNA OBVESTILA
AGROMETEOROLOŠKI PODATKI -
ARSO
OBVLADOVANJE TVEGANJ ZARADI
NEUGODNIH VREMENSKIH RAZMER
  ► NARAVNE NESREČE
  ► SUŠA/MOČA
  ► NAMAKANJE
  ► ŽLED (gozdarstvo)
KARTOGRAFSKI PRIKAZI
SPLETNE POVEZAVE
PROJEKTI IN PUBLIKACIJE

AGROMETEOROLOŠKA MREŽA: VREMENSKE POSTAJE IN FENOLOŠKA OPAZOVANJA

Pregled podatkov za lokacijo Črnomelj, meteorološka postaja 859096

Pregled senzorjev na lokaciji

ID Ime Zadnja
vrednost
Datum
zadnje
spremembe
Tip
senzorja
4082 Omočenost lista (U) 0 U 20.6.2018 16:45 A730WET
4083 Padavine (mm) 0 mm 20.6.2018 16:45 Rain-O-Matic
4081 Relativna vlaga 2 m (% RH) 45,19 % RH 20.6.2018 16:45 50YA
4080 Temperatura 2 m (°C) 29,05 °C 20.6.2018 16:45 50YA

Pregled podatkov zadnjih 24 ur

Zap.
št.
Datum in čas Črnomelj
Omočenost
lista
Padavine Relativna
vlaga
2
m
Temperatura
2
m
1 20.6.2018 16:30
2 20.6.2018 16:00
3 20.6.2018 15:30 0 0 48,7 27,5
4 20.6.2018 15:00 0 0 46,5 28,4
5 20.6.2018 14:30 0 0 43,5 29,7
6 20.6.2018 14:00 0 0 43,4 29
7 20.6.2018 13:30 0 0 42,6 29,4
8 20.6.2018 13:00 0 0 45,2 28,1
9 20.6.2018 12:30 0 0 43,7 28,6
10 20.6.2018 12:00 0 0 48,3 27
11 20.6.2018 11:30 0 0 47,8 27
12 20.6.2018 11:00 0 0 48 27
13 20.6.2018 10:30 0 0 50,3 26,4
14 20.6.2018 10:00 0 0 52,1 25,1
15 20.6.2018 09:30 0 0 52 25,2
16 20.6.2018 09:00 0 0 58,6 23,6
17 20.6.2018 08:30 0 0 63,6 23,1
18 20.6.2018 08:00 0 0 65 22,6
19 20.6.2018 07:30 0 0 76,1 21,1
20 20.6.2018 07:00 0 0 75,1 20,6
21 20.6.2018 06:30 0 0 69,4 20
22 20.6.2018 06:00 0 0 71 18,9
23 20.6.2018 05:30 0 0 74,4 18
24 20.6.2018 05:00 0 0 76,4 17,6
25 20.6.2018 04:30 0 0 75,5 17,6
26 20.6.2018 04:00 0 0 74,2 17,5
27 20.6.2018 03:30 0 0 71,4 18,1
28 20.6.2018 03:00 0 0 69,9 18,1
29 20.6.2018 02:30 0 0 74 17,5
30 20.6.2018 02:00 0 0 74 17,9
31 20.6.2018 01:30 0 0 65,7 19,2
32 20.6.2018 01:00 0 0 73,1 17,9
33 20.6.2018 00:30 0 0 67,6 19
34 20.6.2018 00:00 0 0 64,2 19,6
35 19.6.2018 23:30 0 0 63,3 20,1
36 19.6.2018 23:00 0 0 65,7 19,8
37 19.6.2018 22:30 0 0 66,9 19,8
38 19.6.2018 22:00 0 0 74,1 18,8
39 19.6.2018 21:30 0 0 72 19,4
40 19.6.2018 21:00 0 0 73,9 19,4
41 19.6.2018 20:30 0 0 74 19,7
42 19.6.2018 20:00 0 0 70,3 20,6
43 19.6.2018 19:30 0 0 61,8 21,7
44 19.6.2018 19:00 0 0 66,5 21,8
45 19.6.2018 18:30 0 0 63 23,5
46 19.6.2018 18:00 0 0 48,3 25,7
47 19.6.2018 17:30 0 0 46,6 27
48 19.6.2018 17:00 0 0 51,9 24,4
© 2011 Ministrstvo za kmetijstvo, gozdarstvo in prehrano. Vse pravice pridržane.